Time;durP1;ratioP1;P1;durP2;ratioP2;P2;SDS_P1;SDS_P2;PMS_P1;PMS_P2;Temp;Humidity;BMP_temperature;BMP_pressure;BME280_temperature;BME280_humidity;BME280_pressure;Samples;Min_cycle;Max_cycle;Signal;HPM_P1;HPM_P2
2021/12/12 00:01:12;;;;;;;2.42;2.33;;;;;;;;;;7334682;19;153580;-14
2021/12/12 00:03:50;;;;;;;2.50;2.40;;;;;;;;;;7334147;19;162121;-15
2021/12/12 00:06:26;;;;;;;2.70;2.50;;;;;;;;;;7333093;19;162592;-13
2021/12/12 00:09:08;;;;;;;2.63;2.42;;;;;;;;;;7334350;19;154246;-15
2021/12/12 00:11:39;;;;;;;2.50;2.35;;;;;;;;;;7332708;19;153499;-13
2021/12/12 00:14:15;;;;;;;2.53;2.33;;;;;;;;;;7333775;19;161857;-13
2021/12/12 00:16:47;;;;;;;2.40;2.30;;;;;;;;;;7333772;19;162361;-13
2021/12/12 00:19:18;;;;;;;2.53;2.43;;;;;;;;;;7334082;19;154161;-13
2021/12/12 00:21:53;;;;;;;2.03;1.92;;;;;;;;;;7334005;19;153679;-14
2021/12/12 00:24:28;;;;;;;2.40;2.30;;;;;;;;;;7333382;19;161765;-15
2021/12/12 00:27:00;;;;;;;2.25;2.15;;;;;;;;;;7333059;19;162403;-15
2021/12/12 00:29:32;;;;;;;2.72;2.22;;;;;;;;;;7333818;19;153973;-14
2021/12/12 00:32:11;;;;;;;2.22;2.13;;;;;;;;;;7331910;19;153801;-18
2021/12/12 00:34:46;;;;;;;2.20;2.10;;;;;;;;;;7333093;19;161800;-13
2021/12/12 00:37:19;;;;;;;2.38;2.17;;;;;;;;;;7332830;19;163102;-14
2021/12/12 00:39:54;;;;;;;;;;;;;;;;;;7333799;19;154149;-14
2021/12/12 00:42:30;;;;;;;2.13;2.03;;;;;;;;;;7333216;19;153326;-14
2021/12/12 00:45:05;;;;;;;2.08;1.98;;;;;;;;;;7332737;19;161943;-16
2021/12/12 00:47:37;;;;;;;2.10;2.00;;;;;;;;;;7332711;19;162412;-14
2021/12/12 00:50:12;;;;;;;2.22;2.13;;;;;;;;;;7333389;19;154081;-14
2021/12/12 00:52:46;;;;;;;2.28;2.17;;;;;;;;;;7330494;19;153647;-13
2021/12/12 00:55:20;;;;;;;1.92;1.83;;;;;;;;;;7332657;19;161946;-12
2021/12/12 00:57:54;;;;;;;2.20;2.10;;;;;;;;;;7332258;19;162393;-14
2021/12/12 01:00:30;;;;;;;1.80;1.70;;;;;;;;;;7332785;19;154172;-12
2021/12/12 01:03:02;;;;;;;1.85;1.75;;;;;;;;;;7334294;19;153718;-13
2021/12/12 01:05:34;;;;;;;1.92;1.83;;;;;;;;;;7329471;19;161930;-13
2021/12/12 01:08:08;;;;;;;2.10;2.00;;;;;;;;;;7331123;19;162942;-14
2021/12/12 01:10:46;;;;;;;2.00;1.40;;;;;;;;;;7332538;19;153982;-13
2021/12/12 01:13:18;;;;;;;2.92;1.50;;;;;;;;;;7328274;19;153734;-13
2021/12/12 11:56:17;;;;;;;0.50;0.47;;;;;;;;;;7372428;19;132802;-12
2021/12/12 11:58:59;;;;;;;0.40;0.40;;;;;;;;;;7366598;19;153662;-13
2021/12/12 12:01:36;;;;;;;0.50;0.50;;;;;;;;;;7365005;19;162026;-13
2021/12/12 12:04:17;;;;;;;0.40;0.40;;;;;;;;;;7363783;19;162514;-15
2021/12/12 12:07:06;;;;;;;0.50;0.50;;;;;;;;;;7364688;19;154605;-13
2021/12/12 12:09:50;;;;;;;0.40;0.40;;;;;;;;;;7364413;19;153601;-13
2021/12/12 12:12:40;;;;;;;1.25;0.60;;;;;;;;;;7366649;19;161791;-13
2021/12/12 12:15:19;;;;;;;0.50;0.50;;;;;;;;;;7364107;19;162042;-13
2021/12/12 12:18:04;;;;;;;1.23;0.60;;;;;;;;;;7364334;19;153918;-13
2021/12/12 12:20:42;;;;;;;1.10;0.45;;;;;;;;;;7364543;19;153612;-13
2021/12/12 12:23:32;;;;;;;0.50;0.50;;;;;;;;;;7367918;19;161965;-14
2021/12/12 12:28:59;;;;;;;0.50;0.50;;;;;;;;;;7364115;19;153871;-14
2021/12/12 12:32:09;;;;;;;0.57;0.57;;;;;;;;;;7364307;19;153514;-12
2021/12/12 12:35:24;;;;;;;0.57;0.57;;;;;;;;;;7362663;19;162045;-14
2021/12/12 12:38:34;;;;;;;0.40;0.40;;;;;;;;;;7360649;19;162468;-13
2021/12/12 12:41:35;;;;;;;0.73;0.60;;;;;;;;;;7364597;19;153947;-15
2021/12/12 12:44:39;;;;;;;0.40;0.40;;;;;;;;;;7363434;19;153661;-14
2021/12/12 12:47:40;;;;;;;0.50;0.50;;;;;;;;;;7363257;19;161834;-17
2021/12/12 12:50:45;;;;;;;0.50;0.50;;;;;;;;;;7363290;19;162398;-14
2021/12/12 12:53:54;;;;;;;1.10;0.50;;;;;;;;;;7367303;19;153951;-13
2021/12/12 12:57:09;;;;;;;0.50;0.50;;;;;;;;;;7341329;19;153495;-13
2021/12/12 13:00:11;;;;;;;0.80;0.50;;;;;;;;;;7332129;19;161884;-13
2021/12/12 13:03:05;;;;;;;0.40;0.40;;;;;;;;;;7335368;19;162429;-14
2021/12/12 13:06:01;;;;;;;0.68;0.55;;;;;;;;;;7336111;19;154418;-12
2021/12/12 13:09:01;;;;;;;0.52;0.50;;;;;;;;;;7334228;19;153618;-14
2021/12/12 13:11:39;;;;;;;0.40;0.40;;;;;;;;;;7333931;19;161961;-15
2021/12/12 13:14:20;;;;;;;0.52;0.52;;;;;;;;;;7332792;19;162419;-14
2021/12/12 13:16:58;;;;;;;0.52;0.52;;;;;;;;;;7334179;19;153944;-13
2021/12/12 13:19:41;;;;;;;0.70;0.70;;;;;;;;;;7334078;19;153560;-14
2021/12/12 13:22:23;;;;;;;0.70;0.70;;;;;;;;;;7334836;19;161992;-15
2021/12/12 13:25:05;;;;;;;0.95;0.70;;;;;;;;;;7332513;19;162285;-13
2021/12/12 13:28:05;;;;;;;0.60;0.60;;;;;;;;;;7333525;19;154430;-14
2021/12/12 13:30:43;;;;;;;0.60;0.60;;;;;;;;;;7333678;19;153783;-14
2021/12/12 13:33:24;;;;;;;0.60;0.60;;;;;;;;;;7336510;19;161904;-14
2021/12/12 13:36:10;;;;;;;0.85;0.68;;;;;;;;;;7332183;19;162526;-14
2021/12/12 13:38:54;;;;;;;0.90;0.80;;;;;;;;;;7335652;19;153935;-13
2021/12/12 13:41:35;;;;;;;0.80;0.80;;;;;;;;;;7336081;19;153526;-14
2021/12/12 13:44:13;;;;;;;0.93;0.82;;;;;;;;;;7336780;19;161790;-14
2021/12/12 13:46:53;;;;;;;1.63;0.80;;;;;;;;;;7331287;19;163080;-15
2021/12/12 13:49:30;;;;;;;0.63;0.63;;;;;;;;;;7333300;19;154006;-14
2021/12/12 13:52:09;;;;;;;0.93;0.77;;;;;;;;;;7334097;19;153507;-13
2021/12/12 13:54:57;;;;;;;0.70;0.70;;;;;;;;;;7331602;19;161904;-13
2021/12/12 13:57:33;;;;;;;0.60;0.60;;;;;;;;;;7333962;19;162515;-13
2021/12/12 14:00:14;;;;;;;1.67;1.02;;;;;;;;;;7333213;19;153937;-13
2021/12/12 14:02:51;;;;;;;0.70;0.70;;;;;;;;;;7334857;19;153518;-14
2021/12/12 14:05:28;;;;;;;1.02;0.73;;;;;;;;;;7331589;19;161872;-13
2021/12/12 14:08:04;;;;;;;0.82;0.82;;;;;;;;;;7329775;19;162443;-14
2021/12/12 14:10:40;;;;;;;0.75;0.70;;;;;;;;;;7332735;19;153938;-13
2021/12/12 14:13:14;;;;;;;1.05;0.80;;;;;;;;;;7335571;19;153517;-14
2021/12/12 14:15:50;;;;;;;0.70;0.70;;;;;;;;;;7332271;19;162016;-15
2021/12/12 14:18:23;;;;;;;1.17;1.00;;;;;;;;;;7331986;19;162375;-13
2021/12/12 14:20:57;;;;;;;0.80;0.80;;;;;;;;;;7332745;19;153958;-19
2021/12/12 14:23:32;;;;;;;1.27;0.75;;;;;;;;;;7334390;19;153423;-14
2021/12/12 14:26:10;;;;;;;1.20;1.08;;;;;;;;;;7330657;19;161958;-22
2021/12/12 14:28:46;;;;;;;0.70;0.70;;;;;;;;;;7328374;19;162802;-13
2021/12/12 14:31:23;;;;;;;0.70;0.70;;;;;;;;;;7332201;19;153943;-12
2021/12/12 14:34:00;;;;;;;0.80;0.80;;;;;;;;;;7327640;19;153527;-13
2021/12/12 14:36:37;;;;;;;0.88;0.88;;;;;;;;;;7333594;19;162033;-13
2021/12/12 14:39:10;;;;;;;1.00;1.00;;;;;;;;;;7332253;19;163109;-14
2021/12/12 14:41:56;;;;;;;0.90;0.90;;;;;;;;;;7334104;19;154126;-14
2021/12/12 14:44:31;;;;;;;0.98;0.98;;;;;;;;;;7335220;19;153659;-14
2021/12/12 14:47:07;;;;;;;1.42;1.00;;;;;;;;;;7326239;19;161811;-14
2021/12/12 14:49:42;;;;;;;1.17;1.05;;;;;;;;;;7328424;19;162301;-14
2021/12/12 14:52:21;;;;;;;1.38;1.00;;;;;;;;;;7334072;19;154036;-15
2021/12/12 14:54:56;;;;;;;2.60;1.10;;;;;;;;;;7331770;19;153643;-14
2021/12/12 14:57:33;;;;;;;1.48;1.17;;;;;;;;;;7332323;19;163662;-13
2021/12/12 15:00:09;;;;;;;1.10;1.00;;;;;;;;;;7334754;19;162991;-15
2021/12/12 15:02:48;;;;;;;2.58;1.30;;;;;;;;;;7332574;19;153969;-13
2021/12/12 15:05:23;;;;;;;1.08;0.98;;;;;;;;;;7333709;19;153521;-14
2021/12/12 15:07:58;;;;;;;1.00;0.80;;;;;;;;;;7334450;19;161992;-12
2021/12/12 15:10:34;;;;;;;1.10;1.00;;;;;;;;;;7328530;19;162483;-14
2021/12/12 15:13:14;;;;;;;1.08;1.02;;;;;;;;;;7334089;19;154057;-14
2021/12/12 15:15:52;;;;;;;1.38;1.00;;;;;;;;;;7335399;19;153386;-13
2021/12/12 15:18:31;;;;;;;1.38;1.10;;;;;;;;;;7331232;19;161999;-14
2021/12/12 15:21:06;;;;;;;1.33;1.13;;;;;;;;;;7333228;19;162341;-13
2021/12/12 15:23:41;;;;;;;1.38;1.20;;;;;;;;;;7332632;19;154186;-12
2021/12/12 15:26:15;;;;;;;1.25;1.10;;;;;;;;;;7332793;19;153501;-13
2021/12/12 15:28:52;;;;;;;1.25;1.15;;;;;;;;;;7329449;19;161807;-13
2021/12/12 15:31:30;;;;;;;1.42;1.33;;;;;;;;;;7332550;19;162364;-14
2021/12/12 15:34:06;;;;;;;1.20;1.10;;;;;;;;;;7326554;19;154118;-14
2021/12/12 15:36:41;;;;;;;1.45;1.10;;;;;;;;;;7329084;19;153546;-13
2021/12/12 15:39:18;;;;;;;1.40;1.30;;;;;;;;;;7329488;19;162117;-13
2021/12/12 15:41:50;;;;;;;1.30;1.20;;;;;;;;;;7333630;19;162676;-13
2021/12/12 15:44:31;;;;;;;1.33;1.05;;;;;;;;;;7327660;19;154026;-13
2021/12/12 15:47:05;;;;;;;2.60;1.42;;;;;;;;;;7327076;19;153782;-13
2021/12/12 15:49:42;;;;;;;1.42;1.30;;;;;;;;;;7328626;19;161899;-14
2021/12/12 15:52:19;;;;;;;1.52;1.00;;;;;;;;;;7328003;19;162288;-13
2021/12/12 15:54:52;;;;;;;2.30;1.50;;;;;;;;;;7322797;19;153907;-13
2021/12/12 15:57:26;;;;;;;1.80;1.13;;;;;;;;;;7326395;19;154038;-13
2021/12/12 16:00:10;;;;;;;6.57;1.70;;;;;;;;;;7325918;19;161840;-13
2021/12/12 16:02:43;;;;;;;2.53;1.50;;;;;;;;;;7326594;19;162793;-15
2021/12/12 16:05:18;;;;;;;1.50;1.20;;;;;;;;;;7324495;19;154000;-13
2021/12/12 16:07:52;;;;;;;1.20;1.10;;;;;;;;;;7323117;19;153485;-14
2021/12/12 16:10:28;;;;;;;1.20;1.10;;;;;;;;;;7322736;19;161937;-14
2021/12/12 16:13:02;;;;;;;1.33;1.23;;;;;;;;;;7322245;19;162396;-13
2021/12/12 16:15:43;;;;;;;1.65;1.50;;;;;;;;;;7327240;19;153951;-14
2021/12/12 16:18:17;;;;;;;1.92;1.52;;;;;;;;;;7324058;19;153504;-13
2021/12/12 16:20:52;;;;;;;1.58;1.23;;;;;;;;;;7325692;19;161797;-13
2021/12/12 16:23:25;;;;;;;2.00;1.30;;;;;;;;;;7320551;19;162670;-13
2021/12/12 16:26:01;;;;;;;2.63;1.30;;;;;;;;;;7321859;19;154097;-13
2021/12/12 16:28:35;;;;;;;1.45;1.33;;;;;;;;;;7321092;19;155312;-12
2021/12/12 16:31:11;;;;;;;2.33;1.58;;;;;;;;;;7329153;19;161823;-15
2021/12/12 16:33:46;;;;;;;1.60;1.33;;;;;;;;;;7332125;19;162773;-13
2021/12/12 16:36:20;;;;;;;1.20;1.10;;;;;;;;;;7335891;19;154131;-13
2021/12/12 16:38:54;;;;;;;2.20;1.50;;;;;;;;;;7337776;19;153287;-14
2021/12/12 16:41:25;;;;;;;2.70;1.50;;;;;;;;;;7337024;19;161860;-13
2021/12/12 16:44:00;;;;;;;1.80;1.30;;;;;;;;;;7334655;19;162805;-14
2021/12/12 16:46:38;;;;;;;1.40;1.30;;;;;;;;;;7334051;19;155172;-13
2021/12/12 16:49:13;;;;;;;1.60;1.50;;;;;;;;;;7330795;19;153551;-14
2021/12/12 16:51:53;;;;;;;1.48;1.27;;;;;;;;;;7333185;19;161880;-15
2021/12/12 16:54:35;;;;;;;2.00;1.55;;;;;;;;;;7332477;19;162654;-14
2021/12/12 16:57:11;;;;;;;1.60;1.33;;;;;;;;;;7328119;19;154154;-14
2021/12/12 16:59:46;;;;;;;1.80;1.30;;;;;;;;;;7328201;19;153563;-14
2021/12/12 17:02:28;;;;;;;1.35;1.05;;;;;;;;;;7330762;19;162311;-14
2021/12/12 17:05:01;;;;;;;1.20;1.10;;;;;;;;;;7328197;19;162630;-14
2021/12/12 17:07:36;;;;;;;1.30;1.20;;;;;;;;;;7330451;19;154010;-13
2021/12/12 17:10:12;;;;;;;1.50;1.40;;;;;;;;;;7327325;19;153440;-14
2021/12/12 17:12:50;;;;;;;1.75;1.33;;;;;;;;;;7330514;19;162024;-13
2021/12/12 17:15:25;;;;;;;1.67;1.23;;;;;;;;;;7335608;19;162117;-17
2021/12/12 17:18:09;;;;;;;2.00;1.13;;;;;;;;;;7336344;19;154252;-13
2021/12/12 17:20:44;;;;;;;1.00;0.90;;;;;;;;;;7334767;19;153762;-14
2021/12/12 17:23:21;;;;;;;1.30;1.08;;;;;;;;;;7335846;19;161833;-14
2021/12/12 17:25:54;;;;;;;1.40;1.30;;;;;;;;;;7332768;19;162403;-13
2021/12/12 17:28:28;;;;;;;1.05;1.02;;;;;;;;;;7335744;19;153973;-14
2021/12/12 17:31:08;;;;;;;2.15;1.13;;;;;;;;;;7334200;19;153957;-11
2021/12/12 17:33:48;;;;;;;1.25;1.13;;;;;;;;;;7333278;19;161919;-13
2021/12/12 17:36:24;;;;;;;1.30;1.20;;;;;;;;;;7333176;19;162473;-13
2021/12/12 17:38:58;;;;;;;2.00;1.30;;;;;;;;;;7333478;19;153961;-13
2021/12/12 17:41:37;;;;;;;2.45;1.40;;;;;;;;;;7334463;19;153493;-13
2021/12/12 17:45:02;;;;;;;1.52;1.10;;;;;;;;;;7331958;19;162165;-14
2021/12/12 17:48:05;;;;;;;0.80;0.80;;;;;;;;;;7334603;19;162436;-13
2021/12/12 17:51:34;;;;;;;1.23;1.10;;;;;;;;;;7333435;19;153688;-14
2021/12/12 17:54:09;;;;;;;1.10;1.10;;;;;;;;;;7333830;19;153496;-12
2021/12/12 17:56:50;;;;;;;1.33;1.23;;;;;;;;;;7331866;19;162067;-12
2021/12/12 17:59:28;;;;;;;0.90;0.90;;;;;;;;;;7332699;19;162509;-13
2021/12/12 18:02:01;;;;;;;0.98;0.98;;;;;;;;;;7334999;19;153966;-14
2021/12/12 18:04:33;;;;;;;0.98;0.98;;;;;;;;;;7332968;19;153551;-13
2021/12/12 18:07:11;;;;;;;0.85;0.85;;;;;;;;;;7331397;19;161783;-14
2021/12/12 18:10:16;;;;;;;1.10;1.00;;;;;;;;;;7331871;19;162719;-13
2021/12/12 18:12:48;;;;;;;1.08;1.00;;;;;;;;;;7336706;19;154148;-13
2021/12/12 18:15:19;;;;;;;1.27;0.90;;;;;;;;;;7332612;19;153463;-14
2021/12/12 18:18:24;;;;;;;1.60;1.50;;;;;;;;;;7332275;19;161784;-12
2021/12/12 18:20:59;;;;;;;1.60;1.45;;;;;;;;;;7332361;19;162391;-13
2021/12/12 18:23:33;;;;;;;1.77;1.60;;;;;;;;;;7332632;19;153991;-14
2021/12/12 18:26:10;;;;;;;1.70;1.60;;;;;;;;;;7332610;19;153468;-13
2021/12/12 18:28:45;;;;;;;1.80;1.70;;;;;;;;;;7333328;19;162108;-13
2021/12/12 18:31:20;;;;;;;2.83;2.00;;;;;;;;;;7331833;19;162568;-13
2021/12/12 18:33:58;;;;;;;1.67;1.58;;;;;;;;;;7331868;19;153860;-13
2021/12/12 18:36:36;;;;;;;2.10;1.88;;;;;;;;;;7332070;19;153680;-13
2021/12/12 18:39:22;;;;;;;1.90;1.80;;;;;;;;;;7331678;19;161764;-12
2021/12/12 18:41:59;;;;;;;2.08;1.95;;;;;;;;;;7332984;19;162735;-12
2021/12/12 18:44:34;;;;;;;1.85;1.75;;;;;;;;;;7331575;19;154014;-12
2021/12/12 18:47:08;;;;;;;1.80;1.70;;;;;;;;;;7331750;19;153536;-12
2021/12/12 18:49:42;;;;;;;1.63;1.50;;;;;;;;;;7329378;19;161989;-14
2021/12/12 18:52:18;;;;;;;1.70;1.60;;;;;;;;;;7333507;19;162368;-14
2021/12/12 18:54:57;;;;;;;1.80;1.70;;;;;;;;;;7328637;19;154123;-13
2021/12/12 18:57:31;;;;;;;1.80;1.70;;;;;;;;;;7331438;19;153619;-13
2021/12/12 19:00:08;;;;;;;1.67;1.58;;;;;;;;;;7331022;19;162518;-13
2021/12/12 19:02:43;;;;;;;1.73;1.63;;;;;;;;;;7333717;19;162643;-13
2021/12/12 19:05:20;;;;;;;2.10;2.00;;;;;;;;;;7331482;19;154164;-13
2021/12/12 19:07:52;;;;;;;1.70;1.60;;;;;;;;;;7331193;19;153559;-13
2021/12/12 19:10:27;;;;;;;1.90;1.80;;;;;;;;;;7328309;19;161803;-13
2021/12/12 19:13:05;;;;;;;2.00;1.90;;;;;;;;;;7333665;19;162240;-13
2021/12/12 19:15:41;;;;;;;2.30;2.10;;;;;;;;;;7330257;19;154202;-13
2021/12/12 19:18:16;;;;;;;2.13;2.03;;;;;;;;;;7329675;19;153681;-12
2021/12/12 19:20:50;;;;;;;3.17;2.40;;;;;;;;;;7330414;19;161880;-13
2021/12/12 19:23:31;;;;;;;2.03;1.92;;;;;;;;;;7334299;19;162522;-14
2021/12/12 19:26:08;;;;;;;2.50;2.30;;;;;;;;;;7330591;19;154371;-13
2021/12/12 19:28:42;;;;;;;3.05;2.33;;;;;;;;;;7330057;19;153519;-13
2021/12/12 19:31:16;;;;;;;4.90;3.17;;;;;;;;;;7329728;19;161775;-13
2021/12/12 19:34:02;;;;;;;5.57;3.90;;;;;;;;;;7332154;19;162419;-14
2021/12/12 19:36:38;;;;;;;4.70;4.20;;;;;;;;;;7334047;19;153936;-13
2021/12/12 19:39:17;;;;;;;7.53;4.63;;;;;;;;;;7333497;19;153521;-13
2021/12/12 19:41:58;;;;;;;8.27;4.88;;;;;;;;;;7331037;19;161870;-14
2021/12/12 19:44:32;;;;;;;5.45;4.30;;;;;;;;;;7332560;19;162527;-14
2021/12/12 19:47:07;;;;;;;6.70;3.90;;;;;;;;;;7333192;19;154137;-13
2021/12/12 19:49:40;;;;;;;4.80;3.67;;;;;;;;;;7332214;19;153911;-14
2021/12/12 19:52:19;;;;;;;8.18;4.53;;;;;;;;;;7331328;19;161879;-14
2021/12/12 19:54:56;;;;;;;5.95;4.57;;;;;;;;;;7328740;19;162760;-13
2021/12/12 19:57:32;;;;;;;6.63;4.10;;;;;;;;;;7332130;19;153752;-13
2021/12/12 20:00:25;;;;;;;5.85;3.83;;;;;;;;;;7332536;19;153551;-14
2021/12/12 20:03:06;;;;;;;3.92;3.50;;;;;;;;;;7331820;19;161852;-13
2021/12/12 20:05:39;;;;;;;5.45;3.70;;;;;;;;;;7333363;19;162473;-13
2021/12/12 20:08:14;;;;;;;4.05;3.22;;;;;;;;;;7339096;19;154274;-14
2021/12/12 20:10:50;;;;;;;4.53;3.30;;;;;;;;;;7337985;19;153508;-14
2021/12/12 20:13:30;;;;;;;4.68;3.45;;;;;;;;;;7339325;19;162048;-16
2021/12/12 20:16:02;;;;;;;4.75;3.80;;;;;;;;;;7338830;19;162330;-14
2021/12/12 20:18:34;;;;;;;6.10;3.30;;;;;;;;;;7339061;19;153951;-14
2021/12/12 20:21:06;;;;;;;5.38;3.55;;;;;;;;;;7339673;19;153463;-14
2021/12/12 20:23:38;;;;;;;3.50;3.20;;;;;;;;;;7338051;19;161992;-13
2021/12/12 20:26:12;;;;;;;3.75;3.30;;;;;;;;;;7337619;19;162375;-13
2021/12/12 20:28:50;;;;;;;3.85;3.55;;;;;;;;;;7340336;19;153959;-14
2021/12/12 20:31:29;;;;;;;3.20;2.80;;;;;;;;;;7335058;19;153717;-14
2021/12/12 20:34:02;;;;;;;4.55;2.83;;;;;;;;;;7338568;19;162195;-15
2021/12/12 20:36:41;;;;;;;4.20;3.22;;;;;;;;;;7337743;19;162530;-15
2021/12/12 20:39:15;;;;;;;3.13;2.83;;;;;;;;;;7338084;19;154103;-16
2021/12/12 20:41:53;;;;;;;3.60;3.20;;;;;;;;;;7338267;19;153290;-14
2021/12/12 20:44:30;;;;;;;3.20;2.72;;;;;;;;;;7336836;19;162285;-14
2021/12/12 20:47:06;;;;;;;3.50;3.00;;;;;;;;;;7337005;19;162591;-14
2021/12/12 20:49:49;;;;;;;3.10;2.80;;;;;;;;;;7337691;19;154011;-16
2021/12/12 20:52:24;;;;;;;4.93;3.58;;;;;;;;;;7336702;19;153851;-14
2021/12/12 20:55:00;;;;;;;3.78;3.42;;;;;;;;;;7331743;19;162591;-16
2021/12/12 20:57:38;;;;;;;3.47;3.17;;;;;;;;;;7335906;19;162630;-14
2021/12/12 21:00:18;;;;;;;3.13;2.83;;;;;;;;;;7338338;19;154349;-14
2021/12/12 21:02:53;;;;;;;2.92;2.72;;;;;;;;;;7335833;19;153518;-14
2021/12/12 21:05:27;;;;;;;3.15;2.80;;;;;;;;;;7337155;19;161949;-16
2021/12/12 21:07:59;;;;;;;3.15;2.85;;;;;;;;;;7337653;19;162661;-14
2021/12/12 21:10:33;;;;;;;2.80;2.50;;;;;;;;;;7336248;19;154022;-16
2021/12/12 21:13:09;;;;;;;3.00;2.80;;;;;;;;;;7337440;19;153896;-14
2021/12/12 21:15:46;;;;;;;2.75;2.55;;;;;;;;;;7336954;19;161896;-15
2021/12/12 21:18:21;;;;;;;3.33;3.03;;;;;;;;;;7336405;19;162383;-14
2021/12/12 21:20:54;;;;;;;3.42;2.80;;;;;;;;;;7337186;19;154043;-15
2021/12/12 21:23:31;;;;;;;3.55;3.10;;;;;;;;;;7336692;19;153589;-14
2021/12/12 21:26:09;;;;;;;3.40;2.65;;;;;;;;;;7337136;19;162057;-15
2021/12/12 21:28:43;;;;;;;2.70;2.50;;;;;;;;;;7336860;19;162370;-13
2021/12/12 21:31:23;;;;;;;3.35;2.83;;;;;;;;;;7335255;19;154396;-13
2021/12/12 21:33:59;;;;;;;3.13;2.83;;;;;;;;;;7336716;19;153690;-15
2021/12/12 21:36:45;;;;;;;3.15;2.85;;;;;;;;;;7336555;19;161714;-12
2021/12/12 21:39:29;;;;;;;3.42;2.40;;;;;;;;;;7336161;19;162621;-13
2021/12/12 21:42:08;;;;;;;2.88;2.67;;;;;;;;;;7335443;19;154071;-14
2021/12/12 21:44:42;;;;;;;2.95;2.70;;;;;;;;;;7335401;19;153548;-13
2021/12/12 21:47:21;;;;;;;3.00;2.70;;;;;;;;;;7336142;19;161789;-14
2021/12/12 21:49:59;;;;;;;2.67;2.47;;;;;;;;;;7336214;19;164215;-14
2021/12/12 21:52:57;;;;;;;2.88;2.60;;;;;;;;;;7336644;19;153979;-14
2021/12/12 21:55:42;;;;;;;3.10;2.65;;;;;;;;;;7334806;19;153874;-14
2021/12/12 21:58:22;;;;;;;3.30;2.75;;;;;;;;;;7335952;19;161827;-13
2021/12/12 22:00:58;;;;;;;2.92;2.60;;;;;;;;;;7336316;19;162803;-15
2021/12/12 22:03:38;;;;;;;2.70;2.50;;;;;;;;;;7336347;19;154166;-15
2021/12/12 22:06:16;;;;;;;2.92;2.63;;;;;;;;;;7336470;19;153478;-14
2021/12/12 22:08:51;;;;;;;3.25;2.33;;;;;;;;;;7335530;19;161892;-13
2021/12/12 22:11:23;;;;;;;2.47;2.38;;;;;;;;;;7334409;19;162504;-13
2021/12/12 22:13:55;;;;;;;3.03;2.53;;;;;;;;;;7335662;19;153803;-14
2021/12/12 22:16:30;;;;;;;2.20;2.10;;;;;;;;;;7335535;19;153674;-15
2021/12/12 22:19:08;;;;;;;3.05;2.40;;;;;;;;;;7335182;19;161794;-13
2021/12/12 22:21:42;;;;;;;2.55;2.30;;;;;;;;;;7335290;19;162350;-15
2021/12/12 22:24:19;;;;;;;2.65;2.35;;;;;;;;;;7336126;19;154003;-15
2021/12/12 22:26:53;;;;;;;2.80;2.28;;;;;;;;;;7335999;19;153553;-14
2021/12/12 22:29:30;;;;;;;2.55;2.30;;;;;;;;;;7330823;19;161824;-15
2021/12/12 22:32:05;;;;;;;5.03;2.55;;;;;;;;;;7332361;19;162587;-14
2021/12/12 22:34:46;;;;;;;2.58;2.38;;;;;;;;;;7334839;19;154005;-15
2021/12/12 22:37:19;;;;;;;2.40;2.20;;;;;;;;;;7333503;19;153759;-15
2021/12/12 22:39:53;;;;;;;2.30;2.10;;;;;;;;;;7334890;19;161907;-15
2021/12/12 22:42:28;;;;;;;2.05;1.95;;;;;;;;;;7334747;19;162354;-15
2021/12/12 22:45:14;;;;;;;2.20;2.10;;;;;;;;;;7334730;19;154157;-16
2021/12/12 22:47:51;;;;;;;2.00;1.90;;;;;;;;;;7333847;19;153550;-14
2021/12/12 22:50:34;;;;;;;2.15;2.03;;;;;;;;;;7334905;19;161983;-14
2021/12/12 22:53:09;;;;;;;2.00;1.90;;;;;;;;;;7325904;19;162853;-14
2021/12/12 22:55:46;;;;;;;2.30;2.10;;;;;;;;;;7328505;19;153953;-19
2021/12/12 22:58:21;;;;;;;2.05;1.95;;;;;;;;;;7331478;19;153945;-14
2021/12/12 23:01:30;;;;;;;3.40;1.90;;;;;;;;;;7331221;19;161960;-13
2021/12/12 23:04:09;;;;;;;2.05;1.95;;;;;;;;;;7331516;19;162455;-13
2021/12/12 23:06:47;;;;;;;2.40;2.20;;;;;;;;;;7331204;19;154059;-13
2021/12/12 23:09:23;;;;;;;3.28;2.40;;;;;;;;;;7332299;19;153762;-13
2021/12/12 23:12:04;;;;;;;2.22;1.80;;;;;;;;;;7329648;19;161807;-13
2021/12/12 23:14:38;;;;;;;2.45;1.80;;;;;;;;;;7330905;19;162315;-14
2021/12/12 23:17:14;;;;;;;1.70;1.60;;;;;;;;;;7331223;19;154135;-14
2021/12/12 23:19:48;;;;;;;2.03;1.92;;;;;;;;;;7329809;19;153701;-14
2021/12/12 23:22:25;;;;;;;2.03;1.83;;;;;;;;;;7330575;19;161950;-14
2021/12/12 23:25:00;;;;;;;1.95;1.83;;;;;;;;;;7330425;19;162577;-13
2021/12/12 23:28:08;;;;;;;1.80;1.70;;;;;;;;;;7329726;19;153990;-14
2021/12/12 23:30:44;;;;;;;1.80;1.70;;;;;;;;;;7330655;19;153483;-15
2021/12/12 23:33:19;;;;;;;1.70;1.60;;;;;;;;;;7326618;19;162055;-15
2021/12/12 23:35:54;;;;;;;2.00;1.70;;;;;;;;;;7330147;19;162626;-15
2021/12/12 23:38:33;;;;;;;2.13;1.90;;;;;;;;;;7330586;19;153985;-15
2021/12/12 23:41:11;;;;;;;1.70;1.60;;;;;;;;;;7329883;19;153529;-14
2021/12/12 23:43:59;;;;;;;1.70;1.60;;;;;;;;;;7329342;19;161823;-15
2021/12/12 23:46:36;;;;;;;1.70;1.60;;;;;;;;;;7329937;19;162386;-15
2021/12/12 23:49:11;;;;;;;1.27;1.27;;;;;;;;;;7328877;19;154117;-14
2021/12/12 23:51:45;;;;;;;1.85;1.75;;;;;;;;;;7329323;19;153729;-15
2021/12/12 23:54:31;;;;;;;1.92;1.73;;;;;;;;;;7328661;19;161820;-15
2021/12/12 23:57:07;;;;;;;1.42;1.33;;;;;;;;;;7329540;19;162586;-15
2021/12/12 23:59:42;;;;;;;1.70;1.60;;;;;;;;;;7334162;19;154087;-15
